Date,TemperatureHighF,TemperatureAvgF,TemperatureLowF,DewpointHighF,DewpointAvgF,DewpointLowF,HumidityHigh,HumidityAvg,HumidityLow,PressureMaxIn,PressureMinIn,WindSpeedMaxMPH,WindSpeedAvgMPH,GustSpeedMaxMPH,PrecipitationSumIn
2013-1-1,48,44,38,47,40,32,96,86,78,30.25,29.99,16,9,21,0.01
2013-1-2,41,37,32,32,31,29,88,78,68,30.32,30.23,12,6,15,0.00
2013-1-3,48,40,29,34,30,26,92,71,49,30.44,30.31,16,6,21,0.00
2013-1-4,52,46,42,40,34,31,87,65,46,30.48,30.33,10,4,12,0.00
2013-1-5,53,45,40,42,40,37,94,82,64,30.34,30.18,11,3,14,0.00
2013-1-6,58,44,33,37,32,27,95,67,31,30.36,30.25,16,5,19,0.00
2013-1-7,55,44,28,38,33,25,88,67,46,30.30,30.08,11,4,16,0.00
2013-1-8,52,49,46,51,45,36,96,87,66,30.08,29.89,19,6,21,0.63
2013-1-9,60,56,51,59,54,50,97,96,94,30.05,29.88,26,12,33,2.20
2013-1-10,61,56,50,60,52,46,97,84,66,29.95,29.88,17,7,22,0.06
2013-1-11,72,60,48,63,53,44,90,79,53,29.93,29.73,21,8,29,0.00
2013-1-12,76,61,39,70,58,35,97,89,68,29.89,29.58,23,10,28,0.04
2013-1-13,46,39,33,35,29,23,82,70,53,30.23,29.88,22,13,26,0.00
2013-1-14,45,36,30,31,26,22,77,67,56,30.30,30.17,18,10,23,0.00
2013-1-15,39,35,32,34,30,26,93,82,60,30.20,30.10,16,5,20,0.04
2013-1-16,48,38,31,29,26,22,82,62,41,30.28,30.15,12,6,16,0.00
2013-1-17,61,46,33,38,33,27,82,62,38,30.46,30.23,15,5,18,0.00
2013-1-18,62,49,37,40,35,31,82,61,40,30.47,30.26,13,5,19,0.00
2013-1-19,63,52,40,48,43,36,89,73,58,30.27,30.11,17,6,19,0.00
2013-1-20,71,55,42,51,45,40,95,72,38,30.19,30.02,15,4,20,0.00
2013-1-21,58,49,41,47,40,35,95,71,50,30.23,30.07,15,7,18,0.00
2013-1-22,67,50,38,51,41,32,82,71,54,30.29,30.14,10,4,13,0.00
2013-1-23,72,61,51,58,54,48,94,78,60,30.26,30.09,20,7,25,0.00
2013-1-24,78,66,56,63,60,54,96,80,58,30.15,29.97,14,7,20,0.00
2013-1-25,66,56,52,60,51,45,93,85,77,30.13,29.98,12,6,15,0.00
2013-1-26,53,50,47,52,48,43,96,91,77,30.17,30.06,12,5,13,0.00
2013-1-27,77,65,52,65,60,51,98,85,58,30.06,29.87,23,8,33,0.00
2013-1-28,80,73,68,67,65,64,89,77,60,29.95,29.78,27,13,32,0.00
2013-1-29,80,69,56,68,61,34,86,76,44,29.80,29.39,33,15,40,0.06
2013-1-30,55,49,40,38,29,21,71,49,28,30.12,29.67,26,11,36,0.00
2013-1-31,68,51,34,33,26,20,72,42,16,30.23,30.06,18,6,22,0.00
2013-2-1,63,48,33,40,33,23,69,56,38,30.35,30.12,15,6,23,0.00
2013-2-2,69,56,45,50,42,35,85,60,35,30.27,30.12,13,6,17,0.00
2013-2-3,69,56,40,44,34,28,85,50,21,30.28,29.95,11,4,14,0.00
2013-2-4,71,61,53,59,50,33,94,70,38,29.94,29.74,16,6,20,0.00
2013-2-5,74,64,59,64,60,57,97,87,56,29.94,29.82,11,5,12,0.00
2013-2-6,69,64,59,63,60,57,95,89,76,29.96,29.82,14,7,18,0.00
2013-2-7,77,64,57,63,56,45,96,78,33,30.02,29.74,20,9,27,0.00
2013-2-8,64,55,46,50,40,32,77,59,31,30.19,30.02,18,7,23,0.00
2013-2-9,62,52,47,60,49,44,95,90,79,30.09,29.72,14,8,19,0.03
2013-2-10,70,62,54,66,44,29,95,57,26,29.95,29.59,27,8,40,0.17
2013-2-11,54,51,47,46,43,37,92,75,56,30.09,29.94,20,7,22,0.04
2013-2-12,55,50,46,50,47,42,95,90,80,29.98,29.79,20,7,27,0.30
2013-2-13,55,46,41,42,38,36,85,76,54,30.14,29.98,21,7,29,0.00
2013-2-14,69,53,38,44,38,35,91,63,29,30.09,29.95,13,4,15,0.00
2013-2-15,52,48,41,41,33,24,71,57,40,30.34,30.04,18,9,23,0.00
2013-2-16,58,45,33,32,27,24,78,53,31,30.39,30.15,10,4,13,0.00
2013-2-17,69,56,41,48,36,31,74,51,27,30.15,29.88,24,11,33,0.00
2013-2-18,80,64,53,60,47,34,80,58,21,30.05,29.71,24,14,37,0.00
2013-2-19,62,53,42,35,29,21,69,42,21,30.27,30.07,16,7,20,0.00
2013-2-20,55,50,47,43,37,30,86,64,39,30.11,29.73,21,11,25,0.02
2013-2-21,71,58,50,55,42,27,95,61,20,29.86,29.58,20,10,28,0.12
2013-2-22,50,43,36,41,32,27,84,65,46,30.08,29.85,16,8,19,0.00
2013-2-23,57,45,33,32,30,27,79,59,39,30.05,29.90,11,5,16,0.00
2013-2-24,70,55,36,47,40,30,83,60,35,29.90,29.57,19,7,24,0.00
2013-2-25,62,54,43,56,41,29,84,63,34,29.63,29.44,34,15,39,0.02
2013-2-26,59,48,42,36,33,32,71,58,37,29.86,29.64,26,11,36,0.00
2013-2-27,58,48,39,35,30,20,83,53,23,30.17,29.84,22,11,28,0.00
2013-2-28,59,47,35,31,28,25,77,50,28,30.27,30.12,21,9,26,0.00
2013-3-1,56,46,36,33,30,26,71,54,37,30.27,30.14,11,6,16,0.00
2013-3-2,54,43,32,31,25,20,79,53,31,30.40,30.21,22,8,24,0.00
2013-3-3,70,54,35,45,32,24,70,47,28,30.21,29.80,26,11,32,0.00
2013-3-4,80,67,57,58,50,45,77,57,36,29.80,29.57,21,12,38,0.00
2013-3-5,67,53,45,57,29,19,71,42,23,30.32,29.66,27,15,39,0.00
2013-3-6,61,49,35,27,23,19,63,39,22,30.43,30.17,13,5,17,0.00
2013-3-7,70,56,42,40,32,23,65,43,22,30.21,30.06,18,6,24,0.00
2013-3-8,65,60,54,58,52,40,82,77,58,30.15,29.96,14,7,21,0.00
2013-3-9,73,68,61,64,61,56,88,79,72,29.96,29.61,25,14,38,0.02
2013-3-10,65,54,43,62,42,33,93,65,49,30.05,29.64,25,11,29,0.44
2013-3-11,60,47,34,34,27,17,90,51,20,30.10,29.97,17,6,21,0.00
2013-3-12,69,54,41,35,30,25,67,43,24,30.25,30.01,13,5,18,0.00
2013-3-13,70,58,45,39,36,32,73,47,31,30.40,30.26,12,5,15,0.00
2013-3-14,75,62,46,49,43,35,73,51,36,30.33,30.13,26,7,26,0.00
2013-3-15,79,66,53,55,49,45,88,59,31,30.13,29.87,22,10,29,0.00
2013-3-16,81,69,59,60,57,52,88,66,43,29.86,29.64,29,14,35,0.00
2013-3-17,78,70,64,62,60,54,84,72,57,29.73,29.58,23,8,31,0.00
2013-3-18,74,66,56,66,55,44,91,69,46,29.93,29.61,18,8,23,0.00
2013-3-19,69,58,45,48,44,38,82,60,43,30.04,29.90,13,7,20,0.00
2013-3-20,68,58,47,41,36,29,72,45,24,30.24,29.99,15,6,20,0.00
2013-3-21,70,61,50,59,45,34,79,57,44,29.99,29.53,26,11,35,0.00
2013-3-22,71,59,49,65,54,46,92,82,72,29.78,29.52,18,10,27,0.00
2013-3-23,62,53,48,54,50,46,95,87,74,29.82,29.61,21,6,29,0.00
2013-3-24,53,47,41,50,32,24,89,58,39,30.14,29.74,31,15,35,0.00
2013-3-25,55,44,34,26,22,18,62,43,24,30.37,30.14,23,10,25,0.00
2013-3-26,58,46,31,28,23,19,67,43,28,30.48,30.27,11,3,12,0.00
2013-3-27,70,55,38,44,35,26,69,49,31,30.30,30.06,21,8,29,0.00
2013-3-28,71,62,50,58,52,44,85,72,60,30.18,30.03,16,8,23,0.00
2013-3-29,74,67,60,60,58,56,87,73,59,30.13,29.99,18,9,24,0.00
2013-3-30,77,68,57,65,62,55,94,79,65,30.04,29.83,16,7,26,0.36
2013-3-31,75,68,62,65,61,56,91,77,59,29.93,29.77,16,8,20,0.19
2013-4-1,79,68,53,59,55,52,96,67,40,30.01,29.85,9,3,11,0.00
2013-4-2,71,66,54,64,61,47,94,85,71,29.96,29.81,25,7,29,0.60
2013-4-3,54,50,47,50,47,45,94,90,76,30.09,29.86,19,10,36,0.49
2013-4-4,51,48,44,45,43,41,94,84,73,30.17,30.06,17,8,20,0.01
2013-4-5,68,55,42,51,46,39,91,72,53,30.21,30.00,9,4,13,0.00
2013-4-6,74,64,54,60,54,50,88,72,58,29.98,29.79,27,10,32,0.00
2013-4-7,75,69,62,63,61,57,87,76,65,29.87,29.70,23,11,28,0.00
2013-4-8,77,72,66,66,63,58,83,75,68,29.72,29.60,24,12,31,0.00
2013-4-9,83,75,69,69,66,64,90,74,56,29.66,29.56,27,12,35,0.00
2013-4-10,75,52,42,70,48,39,93,88,81,29.91,29.62,20,10,28,0.39
2013-4-11,63,50,40,43,38,33,89,66,42,29.94,29.77,15,4,18,0.01
2013-4-12,76,60,44,52,46,40,90,63,33,29.96,29.82,11,3,13,0.00
2013-4-13,78,66,54,56,50,46,79,59,36,29.94,29.72,14,4,17,0.00
2013-4-14,79,68,55,67,60,51,92,75,59,29.73,29.50,20,8,26,0.00
2013-4-15,85,76,69,70,68,66,91,75,57,29.70,29.56,24,12,29,0.00
2013-4-16,88,78,72,71,68,66,85,72,51,29.82,29.70,19,10,25,0.00
2013-4-17,85,78,74,72,70,68,90,76,58,29.81,29.59,29,14,33,0.00
2013-4-18,76,58,47,72,50,38,93,76,53,30.09,29.51,31,14,38,0.97
2013-4-19,63,51,38,39,33,27,89,55,26,30.24,30.09,22,7,26,0.00
2013-4-20,71,58,43,41,36,30,75,48,22,30.17,29.97,19,7,25,0.00
2013-4-21,71,60,47,53,48,39,86,65,50,30.15,30.00,15,5,18,0.00
2013-4-22,78,66,54,61,55,48,83,68,52,30.06,29.79,16,7,22,0.00
2013-4-23,69,58,46,66,54,40,95,84,74,30.10,29.76,20,10,29,0.00
2013-4-24,61,51,42,46,40,36,89,68,48,30.27,30.11,23,9,25,0.15
2013-4-25,73,62,51,50,46,41,73,57,40,30.29,30.11,11,6,15,0.00
2013-4-26,78,69,61,68,58,45,80,68,51,30.10,29.92,18,6,21,0.00
2013-4-27,76,70,60,68,63,56,93,77,60,30.02,29.90,19,7,25,0.00
2013-4-28,82,67,54,67,61,53,96,81,56,29.98,29.79,8,3,11,0.00
2013-4-29,83,72,62,68,63,60,94,74,50,29.86,29.72,14,5,18,0.00
2013-4-30,82,70,60,68,63,58,96,79,55,29.78,29.66,13,5,15,0.00
2013-5-1,82,72,64,68,66,63,96,82,61,29.88,29.72,9,4,16,0.00
2013-5-2,69,55,45,64,50,38,92,82,72,30.27,29.86,25,14,32,0.00
2013-5-3,66,54,41,39,34,27,79,51,26,30.25,29.99,26,11,32,0.00
2013-5-4,74,59,44,41,36,30,72,47,21,29.98,29.82,22,7,26,0.00
2013-5-5,69,57,46,48,43,39,81,62,43,30.10,29.96,15,6,28,0.00
2013-5-6,74,63,47,56,51,44,90,68,48,30.07,29.93,8,3,13,0.00
2013-5-7,84,72,57,58,56,54,89,59,37,30.01,29.85,8,3,10,0.00
2013-5-8,86,74,60,62,58,54,84,61,38,29.95,29.79,20,7,25,0.00
2013-5-9,72,70,66,69,65,59,95,86,67,29.91,29.74,25,6,25,0.45
2013-5-10,80,72,66,67,66,64,96,82,60,29.95,29.80,13,4,17,0.01
2013-5-11,79,71,62,67,55,48,89,60,34,30.08,29.92,19,8,24,0.00
2013-5-12,77,67,57,54,46,39,74,50,26,30.20,30.07,13,5,18,0.00
2013-5-13,85,70,53,54,50,46,78,52,27,30.19,30.05,12,4,18,0.00
2013-5-14,85,74,60,66,59,52,92,62,37,30.11,29.91,17,7,26,0.00
2013-5-15,75,72,69,70,68,66,93,86,75,30.00,29.72,21,10,24,0.04
2013-5-16,82,72,63,73,68,62,96,87,73,29.83,29.67,15,7,31,0.51
2013-5-17,90,80,73,76,73,70,92,79,59,29.80,29.69,22,8,24,0.00
2013-5-18,92,81,72,77,72,68,90,73,55,29.83,29.69,20,10,25,0.00
2013-5-19,91,81,71,73,70,66,90,70,50,29.77,29.62,24,12,35,0.00
2013-5-20,90,81,75,73,71,69,85,72,55,29.75,29.57,47,13,56,0.00
2013-5-21,87,74,63,74,68,61,93,82,64,29.80,29.57,27,11,34,1.04
2013-5-22,84,70,56,68,62,55,97,78,48,29.88,29.77,8,2,13,0.01
2013-5-23,85,78,70,74,71,65,96,81,66,29.97,29.80,14,5,18,0.00
2013-5-24,84,77,68,74,72,64,95,83,67,30.10,29.91,16,5,24,0.24
2013-5-25,82,73,68,74,70,66,94,89,73,30.08,29.97,13,4,21,0.13
2013-5-26,87,79,72,74,71,70,95,78,58,30.01,29.85,18,7,22,0.00
2013-5-27,88,80,72,72,70,69,90,73,53,29.92,29.73,19,9,27,0.00
2013-5-28,87,80,73,71,69,66,86,69,53,29.82,29.68,24,11,31,0.00
2013-5-29,84,78,74,74,72,69,91,81,72,29.74,29.64,26,12,30,0.18
2013-5-30,89,81,75,75,73,71,88,77,62,29.74,29.62,23,11,34,0.00
2013-5-31,91,83,78,75,74,73,86,74,57,29.77,29.60,22,12,25,0.00
2013-6-1,91,82,77,76,73,70,85,76,60,29.84,29.66,22,10,29,0.00
2013-6-2,84,76,68,71,61,52,92,63,35,29.98,29.85,17,6,17,0.05
2013-6-3,89,76,62,65,60,56,89,62,35,29.92,29.76,8,3,11,0.00
2013-6-4,92,81,69,71,68,65,87,67,45,29.89,29.70,17,6,21,0.00
2013-6-5,92,82,72,73,70,68,90,69,47,29.83,29.64,20,5,27,0.00
2013-6-6,78,74,69,71,69,66,95,84,68,29.86,29.70,27,6,39,0.57
2013-6-7,84,74,65,66,60,51,91,64,36,29.93,29.80,15,6,21,0.00
2013-6-8,89,77,62,65,62,59,93,63,41,29.87,29.72,14,4,16,0.00
2013-6-9,89,79,72,73,70,66,92,75,52,29.86,29.77,13,4,18,0.00
2013-6-10,97,82,69,73,69,64,95,67,35,29.90,29.80,11,4,17,0.00
2013-6-11,94,83,73,75,72,70,94,70,48,29.95,29.83,15,6,21,0.00
2013-6-12,94,84,75,75,72,69,95,69,44,29.98,29.84,15,5,19,0.00
2013-6-13,96,85,74,75,72,68,92,66,40,29.98,29.80,11,3,19,0.00
2013-6-14,98,86,73,74,72,69,88,64,41,29.91,29.78,7,2,10,0.00
2013-6-15,91,82,74,76,72,69,91,73,58,29.91,29.80,10,4,23,0.00
2013-6-16,96,85,76,75,71,67,89,65,39,29.93,29.78,14,4,17,0.00
2013-6-17,94,84,73,75,72,67,84,68,47,29.96,29.75,22,6,31,0.00
2013-6-18,85,79,74,76,72,70,88,79,63,29.91,29.79,14,4,16,0.00
2013-6-19,93,80,70,75,72,66,95,77,51,29.90,29.80,13,3,31,0.00
2013-6-20,96,86,76,74,71,67,88,64,39,29.97,29.84,14,6,20,0.00
2013-6-21,96,86,74,75,70,65,91,63,36,29.99,29.87,14,6,23,0.00
2013-6-22,96,86,74,74,70,67,88,62,40,29.96,29.79,15,7,22,0.00
2013-6-23,96,86,76,75,70,65,89,60,36,29.91,29.79,20,7,27,0.00
2013-6-24,96,86,76,74,70,67,86,61,40,29.95,29.80,16,8,22,0.00
2013-6-25,98,88,78,75,70,65,85,58,34,29.91,29.74,19,11,33,0.00
2013-6-26,99,88,77,74,70,66,85,58,39,29.89,29.76,19,9,28,0.00
2013-6-27,100,88,77,74,70,64,86,57,31,29.94,29.77,13,5,19,0.00
2013-6-28,104,89,77,72,69,64,76,53,27,29.87,29.70,15,5,17,0.00
2013-6-29,98,88,75,71,65,59,83,49,28,29.79,29.69,17,6,22,0.00
2013-6-30,93,83,72,66,59,54,82,46,28,29.84,29.71,20,7,22,0.00
2013-7-1,87,79,68,62,58,53,75,51,32,29.93,29.83,17,7,21,0.00
2013-7-2,89,79,67,60,55,47,74,47,24,29.99,29.90,16,6,18,0.00
2013-7-3,92,79,63,63,54,50,75,45,26,29.97,29.83,8,3,13,0.00
2013-7-4,95,82,70,67,62,55,77,52,27,29.93,29.79,15,5,23,0.00
2013-7-5,96,83,68,67,63,58,80,53,30,29.91,29.76,12,4,21,0.00
2013-7-6,96,84,73,70,64,54,78,54,24,29.87,29.75,11,4,21,0.00
2013-7-7,97,86,76,74,69,63,80,58,37,29.90,29.80,14,5,20,0.00
2013-7-8,93,84,76,74,72,68,86,68,47,30.00,29.88,18,6,22,0.00
2013-7-9,99,88,76,74,69,63,87,57,34,30.04,29.88,14,6,19,0.00
2013-7-10,101,90,80,74,70,64,79,52,30,29.97,29.79,13,5,17,0.00
2013-7-11,101,85,79,76,72,68,86,66,36,29.88,29.78,13,4,19,0.37
2013-7-12,100,86,74,75,71,67,92,65,35,29.88,29.77,10,3,16,0.00
2013-7-13,100,89,79,72,68,60,78,53,30,29.90,29.76,17,6,19,0.00
2013-7-14,82,74,70,70,66,60,94,79,48,29.92,29.79,10,4,12,0.29
2013-7-15,76,72,68,74,70,66,96,92,84,30.00,29.88,12,4,13,0.63
2013-7-16,89,77,72,75,72,68,93,84,57,30.11,29.98,27,6,34,0.45
2013-7-17,90,78,72,76,73,70,96,85,59,30.13,30.04,14,4,25,0.01
2013-7-18,93,82,73,75,73,69,96,75,49,30.10,29.91,11,3,15,0.00
2013-7-19,92,81,74,74,72,68,92,75,49,29.96,29.83,14,4,21,0.03
2013-7-20,91,81,73,75,72,69,94,77,49,29.90,29.77,11,3,17,0.00
2013-7-21,96,84,73,76,73,69,95,72,42,29.86,29.76,16,5,22,0.00
2013-7-22,97,87,78,76,74,70,89,67,42,29.90,29.77,15,8,24,0.00
2013-7-23,98,87,79,76,72,64,87,63,33,29.89,29.73,18,8,24,0.00
2013-7-24,98,86,78,75,73,68,87,66,44,29.93,29.77,12,6,19,0.00
2013-7-25,96,85,75,77,74,71,90,71,47,29.94,29.87,13,4,18,0.00
2013-7-26,95,84,76,76,73,72,92,72,51,29.92,29.73,15,6,45,0.93
2013-7-27,88,80,73,76,70,67,91,74,51,29.93,29.81,14,7,17,0.01
2013-7-28,92,81,69,75,71,67,95,73,52,29.91,29.77,12,4,15,0.00
2013-7-29,97,86,76,76,72,62,91,65,35,29.91,29.82,18,8,22,0.00
2013-7-30,98,88,79,74,70,62,84,59,35,30.00,29.85,21,8,24,0.00
2013-7-31,100,88,78,74,70,66,85,58,36,29.98,29.80,14,6,21,0.00
2013-8-1,103,89,77,74,70,66,81,56,30,29.90,29.76,10,3,15,0.00
2013-8-2,100,90,79,73,70,67,79,54,34,29.86,29.76,14,6,18,0.00
2013-8-3,99,89,78,75,70,65,80,55,33,29.92,29.82,12,6,18,0.00
2013-8-4,99,88,79,76,72,68,83,59,39,29.98,29.83,12,5,22,0.00
2013-8-5,100,89,80,74,69,63,73,54,30,29.92,29.75,13,5,19,0.00
2013-8-6,101,90,78,73,69,62,81,53,28,29.83,29.68,24,7,24,0.00
2013-8-7,102,90,78,75,70,65,84,55,30,29.81,29.66,17,7,21,0.00
2013-8-8,102,90,78,75,69,61,87,55,27,29.80,29.66,14,6,17,0.00
2013-8-9,102,89,76,74,63,52,83,46,20,29.86,29.74,15,5,20,0.00
2013-8-10,102,89,74,73,67,60,67,50,34,29.95,29.82,12,4,20,0.00
2013-8-11,100,88,76,75,71,68,85,60,37,29.98,29.84,9,3,13,0.00
2013-8-12,98,87,76,75,71,67,87,61,37,29.96,29.82,12,4,16,0.00
2013-8-13,97,86,80,77,73,68,81,66,43,29.91,29.78,12,5,26,0.03
2013-8-14,91,81,75,76,74,72,94,79,56,29.93,29.82,20,5,34,0.59
2013-8-15,90,81,73,75,69,66,91,69,47,29.98,29.85,10,4,13,0.01
2013-8-16,90,80,72,68,65,63,76,61,42,29.97,29.85,14,5,18,0.00
2013-8-17,90,78,65,63,61,59,86,59,36,30.00,29.87,16,5,16,0.00
2013-8-18,92,80,67,68,62,58,82,57,34,30.01,29.89,13,4,21,0.00
2013-8-19,96,83,70,67,62,58,81,52,29,29.98,29.82,9,3,13,0.00
2013-8-20,96,85,72,68,63,59,77,50,30,29.96,29.84,10,3,15,0.00
2013-8-21,96,85,73,71,67,63,82,57,37,30.00,29.88,15,4,17,0.00
2013-8-22,98,87,76,74,70,66,81,58,38,30.00,29.82,10,3,17,0.00
2013-8-23,100,88,77,75,69,63,81,55,33,29.94,29.78,10,3,14,0.00
2013-8-24,100,88,77,75,70,66,79,59,34,29.96,29.86,17,4,25,0.03
2013-8-25,96,86,74,73,69,65,86,58,38,30.04,29.94,18,6,22,0.00
2013-8-26,95,84,74,72,70,65,86,63,39,30.07,29.94,25,8,27,0.00
2013-8-27,94,82,74,73,70,66,92,69,41,30.04,29.93,12,5,21,0.00
2013-8-28,97,85,72,73,68,66,87,60,36,30.02,29.88,12,3,15,0.00
2013-8-29,102,89,74,70,66,62,78,50,28,29.98,29.83,8,2,12,0.00
2013-8-30,103,90,77,71,66,62,75,48,27,29.91,29.75,11,3,15,0.00
2013-8-31,103,90,78,73,68,63,83,50,27,29.82,29.69,11,4,22,0.00
2013-9-1,104,91,80,71,69,65,73,51,29,29.80,29.66,12,4,17,0.00
2013-9-2,94,86,81,75,71,68,75,61,45,29.90,29.75,14,4,15,0.00
2013-9-3,100,88,76,72,68,64,85,54,30,29.89,29.75,10,4,17,0.00
2013-9-4,102,88,74,73,68,62,85,56,27,29.94,29.83,13,4,19,0.00
2013-9-5,100,88,75,74,69,63,83,55,30,30.01,29.87,11,3,14,0.00
2013-9-6,99,87,76,73,68,62,82,56,30,29.99,29.84,10,3,17,0.00
2013-9-7,99,86,75,74,68,60,83,58,28,29.95,29.81,23,5,28,0.00
2013-9-8,96,83,70,73,67,63,91,62,34,29.91,29.77,11,4,17,0.00
2013-9-9,95,84,71,73,68,61,88,62,38,29.92,29.81,14,4,19,0.00
2013-9-10,92,83,74,75,68,64,86,64,39,30.00,29.90,16,4,21,0.00
2013-9-11,96,84,72,73,69,66,88,62,39,30.03,29.89,13,4,20,0.00
2013-9-12,97,86,75,71,66,61,79,55,32,29.98,29.81,8,2,15,0.00
2013-9-13,98,86,73,70,67,64,78,55,35,29.87,29.71,12,4,19,0.00
2013-9-14,95,86,77,69,66,63,72,54,38,29.87,29.76,16,8,18,0.00
2013-9-15,94,84,75,71,66,63,67,55,40,29.94,29.85,11,4,25,0.02
2013-9-16,95,86,75,74,67,65,84,56,38,29.99,29.87,13,3,17,0.00
2013-9-17,95,86,76,71,66,62,75,54,35,29.99,29.84,11,3,27,0.00
2013-9-18,97,87,77,74,67,62,74,54,32,29.93,29.77,12,4,21,0.00
2013-9-19,90,82,76,76,72,69,94,74,57,29.90,29.76,10,4,18,0.03
2013-9-20,76,74,72,75,72,70,97,94,87,29.82,29.70,18,7,24,0.65
2013-9-21,84,74,65,70,57,47,90,59,28,29.88,29.77,16,8,20,0.14
2013-9-22,83,72,58,59,54,50,87,57,32,29.87,29.72,13,4,15,0.02
2013-9-23,87,74,62,64,57,54,79,58,34,29.79,29.66,11,3,13,0.01
2013-9-24,93,80,68,70,62,53,88,58,28,29.84,29.74,11,3,15,0.00
2013-9-25,94,78,60,63,55,48,87,50,21,29.82,29.68,5,2,10,0.00
2013-9-26,93,81,67,62,58,54,69,48,30,29.80,29.71,19,5,21,0.00
2013-9-27,88,80,69,73,68,61,82,69,54,29.86,29.76,16,6,20,0.00
2013-9-28,88,78,69,77,73,67,94,85,64,29.93,29.80,18,8,38,0.29
2013-9-29,82,72,64,67,62,56,95,74,42,29.96,29.83,11,4,15,0.01
2013-9-30,86,75,64,68,62,53,87,65,39,29.85,29.72,7,2,13,0.00
2013-10-1,89,79,70,73,70,67,96,77,49,29.86,29.75,10,4,16,0.00
2013-10-2,87,79,74,75,72,70,94,81,61,29.90,29.78,14,6,17,0.00
2013-10-3,90,81,74,75,73,70,93,77,53,29.86,29.73,17,7,20,0.00
2013-10-4,89,81,75,73,71,69,92,74,54,29.83,29.75,21,8,22,0.00
2013-10-5,81,68,55,73,61,45,93,79,58,30.02,29.78,20,9,26,0.00
2013-10-6,75,63,50,53,44,33,91,57,22,30.07,29.96,16,6,23,0.00
2013-10-7,82,65,49,51,42,36,79,49,20,30.09,29.98,10,3,13,0.00
2013-10-8,80,66,49,53,48,44,85,56,30,30.05,29.92,11,3,12,0.00
2013-10-9,82,70,57,60,56,53,88,64,38,30.01,29.90,12,4,17,0.00
2013-10-10,83,72,59,64,60,56,91,70,49,29.99,29.82,14,4,16,0.00
2013-10-11,85,76,67,72,69,64,93,78,65,29.89,29.75,18,6,24,0.00
2013-10-12,85,75,69,77,68,-100,95,86,71,29.99,29.80,11,-6,27,0.05
2013-10-13,76,71,67,70,68,65,96,90,82,30.12,29.97,11,5,16,0.00
2013-10-14,75,73,70,73,71,69,96,94,88,30.05,29.86,16,5,19,0.08
2013-10-15,75,69,56,72,68,55,96,94,90,29.97,29.82,16,8,20,0.02
2013-10-16,61,57,54,56,55,53,96,91,80,30.02,29.93,19,7,22,0.03
2013-10-17,72,60,49,56,50,47,94,73,44,30.08,29.92,6,2,9,0.16
2013-10-18,71,62,53,58,54,50,93,77,51,29.99,29.84,15,4,26,0.01
2013-10-19,64,55,45,56,44,39,87,69,41,30.15,29.99,21,8,26,0.00
2013-10-20,72,58,43,49,45,41,93,67,38,30.03,29.84,16,5,20,0.00
2013-10-21,73,62,56,66,57,49,94,82,71,30.03,29.86,15,5,21,0.00
2013-10-22,76,61,46,52,46,40,89,62,28,30.11,29.97,11,4,17,0.00
2013-10-23,82,66,50,54,50,46,86,59,31,30.08,29.97,7,2,10,0.00
2013-10-24,82,68,56,56,51,48,76,56,30,30.19,30.01,12,4,12,0.00
2013-10-25,70,60,53,53,50,47,90,70,53,30.33,30.18,15,7,18,0.00
2013-10-26,76,65,57,64,57,50,94,75,66,30.18,29.96,20,6,33,0.00
2013-10-27,67,63,60,61,60,59,96,89,77,30.06,29.95,9,2,13,0.00
2013-10-28,79,68,58,69,64,57,96,87,72,30.05,29.93,12,4,19,0.00
2013-10-29,78,73,68,72,69,67,95,88,79,30.02,29.92,15,6,20,0.00
2013-10-30,73,69,66,70,68,65,97,94,87,29.98,29.75,25,9,33,0.00
2013-10-31,76,70,55,70,57,43,97,69,31,29.82,29.62,19,8,29,0.00
2013-11-1,76,63,49,58,52,47,94,70,45,30.00,29.74,14,4,21,0.00
2013-11-2,68,60,50,47,41,35,75,53,31,30.22,30.00,18,7,22,0.00
2013-11-3,67,56,44,49,44,41,92,68,42,30.16,29.95,15,5,23,0.00
2013-11-4,62,58,54,61,55,48,96,88,69,30.05,29.95,14,5,18,0.00
2013-11-5,70,67,62,69,65,61,96,95,94,29.99,29.87,12,6,16,0.01
2013-11-6,71,58,48,70,54,42,96,85,63,30.30,29.90,19,8,26,0.03
2013-11-7,62,52,42,47,42,38,90,71,42,30.45,30.30,10,4,13,0.01
2013-11-8,64,55,45,51,46,41,95,73,44,30.34,30.08,8,3,14,0.01
2013-11-9,68,60,56,54,50,46,85,71,59,30.17,30.06,12,4,19,0.01
2013-11-10,66,57,51,52,48,-100,90,75,52,30.29,30.16,7,-8,8,0.00
2013-11-11,72,59,47,56,51,45,95,76,52,30.24,30.11,5,1,8,0.00
2013-11-12,60,51,39,57,38,24,90,64,39,30.62,30.22,23,12,30,0.01
2013-11-13,52,41,31,32,27,24,83,60,38,30.65,30.35,10,3,13,0.08
2013-11-14,61,48,33,47,36,28,84,65,34,30.35,30.00,14,5,18,0.14
2013-11-15,72,61,54,60,54,48,89,78,62,30.00,29.79,15,6,16,0.03
2013-11-16,77,70,62,71,66,59,93,87,77,29.82,29.63,20,10,27,0.02
2013-11-17,88,77,65,72,62,47,89,64,29,29.91,29.65,18,8,24,0.03
2013-11-18,75,65,56,46,40,34,56,41,25,30.11,29.92,16,8,21,0.01
2013-11-19,68,61,54,43,38,31,60,45,27,30.13,29.96,15,5,22,0.00
2013-11-20,64,58,47,57,45,37,79,64,53,29.98,29.85,15,5,18,0.00
2013-11-21,75,67,49,71,65,47,96,91,80,30.08,29.89,23,6,33,0.02
2013-11-22,48,40,37,47,38,35,94,92,90,30.38,30.10,27,14,29,1.18
2013-11-23,43,40,38,40,37,33,94,89,79,30.49,30.37,19,12,24,0.03
2013-11-24,39,36,34,33,29,27,86,77,66,30.53,30.32,21,9,23,0.06
2013-11-25,39,37,34,36,34,31,94,92,85,30.33,30.11,15,6,18,0.36
2013-11-26,52,43,37,38,34,31,92,74,51,30.31,30.09,22,11,27,0.00
2013-11-27,47,38,31,30,24,19,81,57,35,30.44,30.31,16,6,22,0.00
2013-11-28,52,41,30,31,28,26,88,64,37,30.43,30.33,8,2,12,0.00
2013-11-29,58,45,33,43,36,29,90,71,47,30.50,30.32,10,3,12,0.00
2013-11-30,66,54,42,54,45,35,89,74,58,30.34,30.13,16,5,22,0.00
2013-12-1,69,61,53,60,56,50,94,84,70,30.13,29.84,20,6,25,0.00
2013-12-2,70,57,45,57,50,44,97,80,42,29.84,29.61,9,2,12,0.01
2013-12-3,80,60,41,55,48,39,96,68,28,29.62,29.46,14,4,18,0.00
2013-12-4,76,66,56,65,60,47,95,80,65,29.77,29.55,17,6,21,0.00
2013-12-5,56,38,32,47,31,25,91,76,63,30.11,29.77,20,13,29,0.00
2013-12-6,34,30,26,32,28,23,93,89,84,30.46,30.06,14,3,18,0.47
2013-12-7,29,26,24,27,23,20,93,89,84,30.50,30.27,0,0,0,0.00
2013-12-8,38,33,28,36,32,27,95,93,89,30.26,30.02,5,1,8,0.01
2013-12-9,38,34,32,36,32,26,93,88,78,30.36,30.09,15,8,18,0.00
2013-12-10,40,31,23,27,24,19,89,73,57,30.50,30.33,14,5,16,0.00
2013-12-11,49,37,28,35,30,24,89,76,54,30.54,30.30,10,4,14,0.00
2013-12-12,50,40,30,36,32,26,88,74,55,30.57,30.29,7,2,11,0.00
2013-12-13,49,44,40,48,40,34,96,87,76,30.28,29.79,12,4,14,0.21
2013-12-14,49,43,35,48,39,30,96,86,72,30.30,29.77,23,8,26,0.00
2013-12-15,58,43,29,38,33,27,90,71,46,30.34,30.19,7,3,10,0.00
2013-12-16,66,50,36,39,36,32,85,62,33,30.23,30.11,13,4,18,0.00
2013-12-17,69,53,37,45,40,33,87,64,38,30.25,30.17,6,2,9,0.00
2013-12-18,69,54,38,50,43,36,93,70,43,30.23,29.99,18,6,25,0.00
2013-12-19,75,64,53,64,58,50,92,80,62,29.98,29.71,24,10,34,0.00
2013-12-20,73,63,40,66,58,38,94,85,72,29.79,29.69,18,8,22,0.00
2013-12-21,58,47,37,56,46,36,96,95,91,29.73,29.50,14,6,23,1.14
2013-12-22,49,40,34,48,35,28,96,82,65,30.35,29.73,17,9,22,0.00
2013-12-23,47,36,28,34,30,25,90,77,57,30.52,30.33,10,4,14,0.00
2013-12-24,54,40,28,37,32,26,91,74,50,30.52,30.25,15,5,16,0.00
2013-12-25,59,46,37,47,38,32,86,73,63,30.37,30.23,13,5,19,0.00
2013-12-26,53,43,35,40,36,32,93,79,60,30.41,30.29,8,3,10,0.00
2013-12-27,59,47,34,43,39,32,94,77,56,30.42,30.29,10,1,11,0.00
2013-12-28,60,48,36,43,39,34,95,72,44,30.29,29.94,11,3,13,0.00
2013-12-29,56,42,34,49,36,28,89,79,65,30.25,29.92,20,7,25,0.00
2013-12-30,43,36,30,28,25,22,80,64,49,30.38,30.21,13,6,16,0.00
2013-12-31,54,41,30,32,28,24,84,63,38,30.42,30.20,9,3,14,0.00
2014-1-1,67,50,34,52,41,31,88,72,51,30.19,29.85,22,9,31,0.00
2014-1-2,43,35,28,31,22,20,76,61,43,30.43,30.14,22,10,26,0.00